TimeCDT,TemperatureF,Dew PointF,Humidity,Sea Level PressureIn,VisibilityMPH,Wind Direction,Wind SpeedMPH,Gust SpeedMPH,PrecipitationIn,Events,Conditions,WindDirDegrees,DateUTC
12:53 AM,66.0,63.0,90,29.87,10.0,WNW,4.6,-,N/A,,Clear,300,2013-06-27 05:53:00
1:53 AM,66.0,62.1,87,29.88,10.0,NW,8.1,-,N/A,,Clear,310,2013-06-27 06:53:00
2:53 AM,64.0,59.0,84,29.89,10.0,WNW,6.9,-,N/A,,Clear,300,2013-06-27 07:53:00
3:53 AM,63.0,59.0,87,29.89,10.0,NW,6.9,-,N/A,,Clear,320,2013-06-27 08:53:00
4:53 AM,64.9,55.9,73,29.89,10.0,NW,8.1,-,N/A,,Clear,320,2013-06-27 09:53:00
5:53 AM,63.0,55.0,75,29.91,10.0,WNW,6.9,-,N/A,,Clear,300,2013-06-27 10:53:00
6:53 AM,66.0,55.0,68,29.91,10.0,NW,9.2,-,N/A,,Clear,310,2013-06-27 11:53:00
7:53 AM,68.0,55.9,65,29.92,10.0,WNW,6.9,-,N/A,,Clear,300,2013-06-27 12:53:00
8:53 AM,69.1,55.9,63,29.94,10.0,WNW,8.1,-,N/A,,Clear,300,2013-06-27 13:53:00
9:53 AM,72.0,57.9,61,29.95,10.0,West,9.2,-,N/A,,Clear,280,2013-06-27 14:53:00
10:53 AM,78.1,55.9,46,29.94,10.0,NW,12.7,-,N/A,,Clear,310,2013-06-27 15:53:00
11:53 AM,82.0,55.9,41,29.94,10.0,NW,11.5,19.6,N/A,,Clear,310,2013-06-27 16:53:00
12:53 PM,84.9,54.0,34,29.94,10.0,WNW,13.8,21.9,N/A,,Clear,300,2013-06-27 17:53:00
1:53 PM,84.9,51.1,31,29.93,10.0,NW,19.6,31.1,N/A,,Clear,320,2013-06-27 18:53:00
2:53 PM,87.1,51.1,29,29.92,10.0,WNW,18.4,26.5,N/A,,Partly Cloudy,300,2013-06-27 19:53:00
3:53 PM,88.0,50.0,27,29.92,10.0,WNW,20.7,27.6,N/A,,Partly Cloudy,290,2013-06-27 20:53:00
4:53 PM,88.0,50.0,27,29.91,10.0,WNW,16.1,28.8,N/A,,Clear,300,2013-06-27 21:53:00
5:53 PM,86.0,51.1,30,29.91,10.0,NW,18.4,27.6,N/A,,Clear,320,2013-06-27 22:53:00
6:53 PM,84.0,52.0,33,29.91,10.0,NW,17.3,27.6,N/A,,Clear,310,2013-06-27 23:53:00
7:53 PM,81.0,52.0,36,29.91,10.0,NW,15.0,-,N/A,,Clear,310,2013-06-28 00:53:00
8:53 PM,77.0,54.0,45,29.92,10.0,NNW,11.5,-,N/A,,Clear,340,2013-06-28 01:53:00
9:53 PM,72.0,53.1,51,29.94,10.0,NNW,11.5,-,N/A,,Clear,340,2013-06-28 02:53:00
10:53 PM,68.0,53.1,59,29.94,10.0,NW,9.2,-,N/A,,Clear,320,2013-06-28 03:53:00
11:53 PM,68.0,53.1,59,29.95,10.0,NW,11.5,-,N/A,,Clear,320,2013-06-28 04:53:00